sensor_id;sensor_type;location;lat;lon;timestamp;P1;durP1;ratioP1;P2;durP2;ratioP2
49826;SDS011;35715;51.570;6.036;2022-09-03T00:02:06;7.15;;;2.90;;
49826;SDS011;35715;51.570;6.036;2022-09-03T00:04:41;12.70;;;3.85;;
49826;SDS011;35715;51.570;6.036;2022-09-03T00:13:22;5.10;;;2.88;;
49826;SDS011;35715;51.570;6.036;2022-09-03T00:15:51;4.95;;;2.22;;
49826;SDS011;35715;51.570;6.036;2022-09-03T00:18:20;6.53;;;2.13;;
49826;SDS011;35715;51.570;6.036;2022-09-03T00:23:57;4.63;;;2.10;;
49826;SDS011;35715;51.570;6.036;2022-09-03T00:26:27;2.20;;;1.33;;
49826;SDS011;35715;51.570;6.036;2022-09-03T00:29:00;3.30;;;2.03;;
49826;SDS011;35715;51.570;6.036;2022-09-03T00:31:35;3.08;;;2.05;;
49826;SDS011;35715;51.570;6.036;2022-09-03T00:36:39;6.78;;;2.65;;
49826;SDS011;35715;51.570;6.036;2022-09-03T00:39:14;3.80;;;2.13;;
49826;SDS011;35715;51.570;6.036;2022-09-03T00:52:51;11.90;;;2.75;;
49826;SDS011;35715;51.570;6.036;2022-09-03T00:55:38;2.90;;;2.47;;
49826;SDS011;35715;51.570;6.036;2022-09-03T01:00:48;4.35;;;2.35;;
49826;SDS011;35715;51.570;6.036;2022-09-03T01:06:32;4.55;;;2.50;;
49826;SDS011;35715;51.570;6.036;2022-09-03T01:09:13;10.35;;;2.67;;
49826;SDS011;35715;51.570;6.036;2022-09-03T01:11:57;6.60;;;2.53;;
49826;SDS011;35715;51.570;6.036;2022-09-03T01:14:58;3.63;;;2.22;;
49826;SDS011;35715;51.570;6.036;2022-09-03T01:17:47;5.15;;;2.55;;
49826;SDS011;35715;51.570;6.036;2022-09-03T01:26:42;8.95;;;2.80;;
49826;SDS011;35715;51.570;6.036;2022-09-03T01:29:33;3.80;;;2.70;;
49826;SDS011;35715;51.570;6.036;2022-09-03T01:34:49;2.70;;;1.83;;
49826;SDS011;35715;51.570;6.036;2022-09-03T01:46:05;10.57;;;3.88;;
49826;SDS011;35715;51.570;6.036;2022-09-03T01:48:47;3.22;;;2.88;;
49826;SDS011;35715;51.570;6.036;2022-09-03T01:51:29;7.10;;;3.03;;
49826;SDS011;35715;51.570;6.036;2022-09-03T02:07:49;8.40;;;2.85;;
49826;SDS011;35715;51.570;6.036;2022-09-03T02:12:55;7.00;;;3.03;;
49826;SDS011;35715;51.570;6.036;2022-09-03T02:15:25;5.10;;;2.70;;
49826;SDS011;35715;51.570;6.036;2022-09-03T02:17:52;3.65;;;1.75;;
49826;SDS011;35715;51.570;6.036;2022-09-03T02:20:24;3.00;;;1.83;;
49826;SDS011;35715;51.570;6.036;2022-09-03T02:22:53;4.68;;;2.55;;
49826;SDS011;35715;51.570;6.036;2022-09-03T02:25:22;3.92;;;2.50;;
49826;SDS011;35715;51.570;6.036;2022-09-03T02:27:56;3.08;;;2.45;;
49826;SDS011;35715;51.570;6.036;2022-09-03T02:30:24;7.78;;;2.38;;
49826;SDS011;35715;51.570;6.036;2022-09-03T02:32:50;4.97;;;2.35;;
49826;SDS011;35715;51.570;6.036;2022-09-03T02:35:15;3.72;;;2.38;;
49826;SDS011;35715;51.570;6.036;2022-09-03T02:37:41;5.20;;;2.15;;
49826;SDS011;35715;51.570;6.036;2022-09-03T02:40:08;2.72;;;1.63;;
49826;SDS011;35715;51.570;6.036;2022-09-03T02:42:35;1.55;;;1.45;;
49826;SDS011;35715;51.570;6.036;2022-09-03T02:45:09;4.10;;;1.70;;
49826;SDS011;35715;51.570;6.036;2022-09-03T02:47:44;3.72;;;2.00;;
49826;SDS011;35715;51.570;6.036;2022-09-03T02:50:15;5.33;;;2.50;;
49826;SDS011;35715;51.570;6.036;2022-09-03T02:52:40;4.47;;;2.13;;
49826;SDS011;35715;51.570;6.036;2022-09-03T02:55:05;7.32;;;1.85;;
49826;SDS011;35715;51.570;6.036;2022-09-03T02:57:31;11.18;;;2.83;;
49826;SDS011;35715;51.570;6.036;2022-09-03T03:00:04;2.55;;;1.60;;
49826;SDS011;35715;51.570;6.036;2022-09-03T03:02:30;6.18;;;2.20;;
49826;SDS011;35715;51.570;6.036;2022-09-03T03:04:55;2.67;;;2.17;;
49826;SDS011;35715;51.570;6.036;2022-09-03T03:07:20;2.35;;;1.70;;
49826;SDS011;35715;51.570;6.036;2022-09-03T03:09:51;5.30;;;2.72;;
49826;SDS011;35715;51.570;6.036;2022-09-03T03:12:16;3.38;;;1.95;;
49826;SDS011;35715;51.570;6.036;2022-09-03T03:14:43;5.63;;;2.85;;
49826;SDS011;35715;51.570;6.036;2022-09-03T03:17:09;8.82;;;1.85;;
49826;SDS011;35715;51.570;6.036;2022-09-03T03:19:50;3.38;;;2.15;;
49826;SDS011;35715;51.570;6.036;2022-09-03T03:22:15;2.70;;;2.45;;
49826;SDS011;35715;51.570;6.036;2022-09-03T03:24:41;5.40;;;2.72;;
49826;SDS011;35715;51.570;6.036;2022-09-03T03:27:06;12.93;;;3.17;;
49826;SDS011;35715;51.570;6.036;2022-09-03T03:34:30;4.37;;;2.67;;
49826;SDS011;35715;51.570;6.036;2022-09-03T03:36:55;3.50;;;2.13;;
49826;SDS011;35715;51.570;6.036;2022-09-03T03:39:21;4.75;;;2.00;;
49826;SDS011;35715;51.570;6.036;2022-09-03T03:41:46;5.18;;;2.50;;
49826;SDS011;35715;51.570;6.036;2022-09-03T03:44:11;5.20;;;2.40;;
49826;SDS011;35715;51.570;6.036;2022-09-03T03:46:37;6.85;;;3.47;;
49826;SDS011;35715;51.570;6.036;2022-09-03T03:49:05;3.85;;;2.20;;
49826;SDS011;35715;51.570;6.036;2022-09-03T03:51:44;8.90;;;2.40;;
49826;SDS011;35715;51.570;6.036;2022-09-03T03:54:10;4.03;;;2.47;;
49826;SDS011;35715;51.570;6.036;2022-09-03T03:56:35;5.00;;;2.17;;
49826;SDS011;35715;51.570;6.036;2022-09-03T03:59:01;2.20;;;1.65;;
49826;SDS011;35715;51.570;6.036;2022-09-03T04:03:56;5.78;;;2.35;;
49826;SDS011;35715;51.570;6.036;2022-09-03T04:06:23;4.85;;;1.88;;
49826;SDS011;35715;51.570;6.036;2022-09-03T04:08:49;6.93;;;2.42;;
49826;SDS011;35715;51.570;6.036;2022-09-03T04:11:22;25.05;;;3.30;;
49826;SDS011;35715;51.570;6.036;2022-09-03T04:13:48;4.57;;;1.92;;
49826;SDS011;35715;51.570;6.036;2022-09-03T04:16:16;3.60;;;1.70;;
49826;SDS011;35715;51.570;6.036;2022-09-03T04:18:46;7.28;;;1.98;;
49826;SDS011;35715;51.570;6.036;2022-09-03T04:21:18;4.60;;;1.90;;
49826;SDS011;35715;51.570;6.036;2022-09-03T04:23:46;2.40;;;1.90;;
49826;SDS011;35715;51.570;6.036;2022-09-03T04:26:14;2.67;;;2.20;;
49826;SDS011;35715;51.570;6.036;2022-09-03T04:28:41;4.43;;;1.90;;
49826;SDS011;35715;51.570;6.036;2022-09-03T04:31:15;3.92;;;2.35;;
49826;SDS011;35715;51.570;6.036;2022-09-03T04:33:42;2.72;;;1.55;;
49826;SDS011;35715;51.570;6.036;2022-09-03T04:36:18;3.50;;;1.58;;
49826;SDS011;35715;51.570;6.036;2022-09-03T04:38:45;2.78;;;1.65;;
49826;SDS011;35715;51.570;6.036;2022-09-03T04:41:20;8.85;;;2.92;;
49826;SDS011;35715;51.570;6.036;2022-09-03T04:43:51;4.90;;;2.38;;
49826;SDS011;35715;51.570;6.036;2022-09-03T04:46:17;1.90;;;1.70;;
49826;SDS011;35715;51.570;6.036;2022-09-03T04:48:46;3.03;;;1.58;;
49826;SDS011;35715;51.570;6.036;2022-09-03T04:51:19;12.13;;;2.65;;
49826;SDS011;35715;51.570;6.036;2022-09-03T04:53:46;2.50;;;2.20;;
49826;SDS011;35715;51.570;6.036;2022-09-03T04:56:17;3.42;;;2.17;;
49826;SDS011;35715;51.570;6.036;2022-09-03T04:58:45;2.83;;;2.00;;
49826;SDS011;35715;51.570;6.036;2022-09-03T05:01:21;7.07;;;1.77;;
49826;SDS011;35715;51.570;6.036;2022-09-03T05:03:47;6.10;;;1.75;;
49826;SDS011;35715;51.570;6.036;2022-09-03T05:06:13;7.68;;;2.65;;
49826;SDS011;35715;51.570;6.036;2022-09-03T05:08:40;3.85;;;2.65;;
49826;SDS011;35715;51.570;6.036;2022-09-03T05:11:07;3.47;;;2.45;;
49826;SDS011;35715;51.570;6.036;2022-09-03T05:13:33;8.00;;;2.33;;
49826;SDS011;35715;51.570;6.036;2022-09-03T05:16:00;3.28;;;2.33;;
49826;SDS011;35715;51.570;6.036;2022-09-03T05:18:27;6.70;;;2.63;;
49826;SDS011;35715;51.570;6.036;2022-09-03T05:21:02;2.90;;;1.50;;
49826;SDS011;35715;51.570;6.036;2022-09-03T05:23:34;3.58;;;1.58;;
49826;SDS011;35715;51.570;6.036;2022-09-03T05:26:01;4.68;;;1.92;;
49826;SDS011;35715;51.570;6.036;2022-09-03T05:28:30;6.20;;;2.42;;
49826;SDS011;35715;51.570;6.036;2022-09-03T05:33:43;4.30;;;2.17;;
49826;SDS011;35715;51.570;6.036;2022-09-03T05:36:12;24.38;;;3.08;;
49826;SDS011;35715;51.570;6.036;2022-09-03T05:38:39;3.95;;;1.50;;
49826;SDS011;35715;51.570;6.036;2022-09-03T05:41:12;2.80;;;1.50;;
49826;SDS011;35715;51.570;6.036;2022-09-03T05:43:39;3.55;;;1.50;;
49826;SDS011;35715;51.570;6.036;2022-09-03T05:46:10;3.22;;;1.85;;
49826;SDS011;35715;51.570;6.036;2022-09-03T05:48:37;2.20;;;2.00;;
49826;SDS011;35715;51.570;6.036;2022-09-03T05:51:12;6.78;;;1.85;;
49826;SDS011;35715;51.570;6.036;2022-09-03T05:53:40;4.95;;;1.75;;
49826;SDS011;35715;51.570;6.036;2022-09-03T05:56:11;2.65;;;2.15;;
49826;SDS011;35715;51.570;6.036;2022-09-03T05:58:45;5.45;;;2.08;;
49826;SDS011;35715;51.570;6.036;2022-09-03T06:04:11;2.20;;;1.50;;
49826;SDS011;35715;51.570;6.036;2022-09-03T06:06:39;4.05;;;1.80;;
49826;SDS011;35715;51.570;6.036;2022-09-03T06:09:10;9.18;;;2.38;;
49826;SDS011;35715;51.570;6.036;2022-09-03T06:14:07;3.35;;;1.58;;
49826;SDS011;35715;51.570;6.036;2022-09-03T06:16:35;4.38;;;1.58;;
49826;SDS011;35715;51.570;6.036;2022-09-03T06:19:13;6.05;;;2.17;;
49826;SDS011;35715;51.570;6.036;2022-09-03T06:21:39;5.88;;;1.77;;
49826;SDS011;35715;51.570;6.036;2022-09-03T06:24:08;9.13;;;2.53;;
49826;SDS011;35715;51.570;6.036;2022-09-03T06:26:37;3.15;;;1.33;;
49826;SDS011;35715;51.570;6.036;2022-09-03T06:29:02;7.82;;;1.95;;
49826;SDS011;35715;51.570;6.036;2022-09-03T06:31:42;6.47;;;2.65;;
49826;SDS011;35715;51.570;6.036;2022-09-03T06:34:08;4.80;;;1.85;;
49826;SDS011;35715;51.570;6.036;2022-09-03T06:36:33;5.97;;;2.40;;
49826;SDS011;35715;51.570;6.036;2022-09-03T06:38:58;6.45;;;1.52;;
49826;SDS011;35715;51.570;6.036;2022-09-03T06:44:21;8.63;;;2.50;;
49826;SDS011;35715;51.570;6.036;2022-09-03T06:46:46;4.70;;;1.88;;
49826;SDS011;35715;51.570;6.036;2022-09-03T06:49:12;3.17;;;1.95;;
49826;SDS011;35715;51.570;6.036;2022-09-03T06:51:40;9.18;;;2.97;;
49826;SDS011;35715;51.570;6.036;2022-09-03T06:54:08;7.00;;;2.60;;
49826;SDS011;35715;51.570;6.036;2022-09-03T06:56:36;6.15;;;2.40;;
49826;SDS011;35715;51.570;6.036;2022-09-03T06:59:04;6.32;;;1.90;;
49826;SDS011;35715;51.570;6.036;2022-09-03T07:01:34;4.38;;;2.15;;
49826;SDS011;35715;51.570;6.036;2022-09-03T07:04:04;4.15;;;1.90;;
49826;SDS011;35715;51.570;6.036;2022-09-03T07:06:32;6.97;;;1.70;;
49826;SDS011;35715;51.570;6.036;2022-09-03T07:11:29;8.43;;;2.40;;
49826;SDS011;35715;51.570;6.036;2022-09-03T07:13:57;5.50;;;1.13;;
49826;SDS011;35715;51.570;6.036;2022-09-03T07:16:32;9.82;;;2.08;;
49826;SDS011;35715;51.570;6.036;2022-09-03T07:18:59;3.65;;;1.77;;
49826;SDS011;35715;51.570;6.036;2022-09-03T07:21:26;12.20;;;2.80;;
49826;SDS011;35715;51.570;6.036;2022-09-03T07:23:54;3.95;;;1.77;;
49826;SDS011;35715;51.570;6.036;2022-09-03T07:26:21;4.43;;;2.65;;
49826;SDS011;35715;51.570;6.036;2022-09-03T07:28:48;12.10;;;2.30;;
49826;SDS011;35715;51.570;6.036;2022-09-03T07:31:16;4.72;;;1.27;;
49826;SDS011;35715;51.570;6.036;2022-09-03T07:33:44;2.90;;;1.92;;
49826;SDS011;35715;51.570;6.036;2022-09-03T07:36:11;2.38;;;1.80;;
49826;SDS011;35715;51.570;6.036;2022-09-03T07:38:39;4.35;;;1.38;;
49826;SDS011;35715;51.570;6.036;2022-09-03T07:41:06;5.75;;;1.80;;
49826;SDS011;35715;51.570;6.036;2022-09-03T07:43:34;6.95;;;1.40;;
49826;SDS011;35715;51.570;6.036;2022-09-03T07:46:22;4.93;;;1.17;;
49826;SDS011;35715;51.570;6.036;2022-09-03T07:48:53;6.07;;;1.80;;
49826;SDS011;35715;51.570;6.036;2022-09-03T07:51:22;6.18;;;2.00;;
49826;SDS011;35715;51.570;6.036;2022-09-03T07:56:15;5.55;;;1.67;;
49826;SDS011;35715;51.570;6.036;2022-09-03T07:58:41;2.63;;;0.95;;
49826;SDS011;35715;51.570;6.036;2022-09-03T08:01:15;6.45;;;1.45;;
49826;SDS011;35715;51.570;6.036;2022-09-03T08:03:43;5.25;;;1.35;;
49826;SDS011;35715;51.570;6.036;2022-09-03T08:06:13;4.75;;;1.48;;
49826;SDS011;35715;51.570;6.036;2022-09-03T08:08:40;2.58;;;1.60;;
49826;SDS011;35715;51.570;6.036;2022-09-03T08:14:08;7.43;;;1.35;;
49826;SDS011;35715;51.570;6.036;2022-09-03T08:16:36;4.85;;;1.70;;
49826;SDS011;35715;51.570;6.036;2022-09-03T08:19:04;4.47;;;1.23;;
49826;SDS011;35715;51.570;6.036;2022-09-03T08:21:29;4.18;;;1.52;;
49826;SDS011;35715;51.570;6.036;2022-09-03T08:23:55;3.50;;;1.10;;
49826;SDS011;35715;51.570;6.036;2022-09-03T08:26:27;1.67;;;0.90;;
49826;SDS011;35715;51.570;6.036;2022-09-03T08:28:55;2.10;;;1.70;;
49826;SDS011;35715;51.570;6.036;2022-09-03T08:31:22;2.05;;;1.33;;
49826;SDS011;35715;51.570;6.036;2022-09-03T08:33:50;6.22;;;1.52;;
49826;SDS011;35715;51.570;6.036;2022-09-03T08:36:18;3.53;;;1.50;;
49826;SDS011;35715;51.570;6.036;2022-09-03T08:38:46;1.17;;;0.93;;
49826;SDS011;35715;51.570;6.036;2022-09-03T08:44:27;1.35;;;1.20;;
49826;SDS011;35715;51.570;6.036;2022-09-03T08:47:04;4.45;;;1.67;;
49826;SDS011;35715;51.570;6.036;2022-09-03T08:53:05;2.28;;;1.33;;
49826;SDS011;35715;51.570;6.036;2022-09-03T08:55:55;5.05;;;2.22;;
49826;SDS011;35715;51.570;6.036;2022-09-03T08:58:27;6.00;;;1.95;;
49826;SDS011;35715;51.570;6.036;2022-09-03T09:06:54;1.77;;;1.13;;
49826;SDS011;35715;51.570;6.036;2022-09-03T09:12:20;3.42;;;1.20;;
49826;SDS011;35715;51.570;6.036;2022-09-03T09:17:36;3.40;;;1.55;;
49826;SDS011;35715;51.570;6.036;2022-09-03T09:23:03;4.75;;;2.17;;
49826;SDS011;35715;51.570;6.036;2022-09-03T09:25:31;8.07;;;1.33;;
49826;SDS011;35715;51.570;6.036;2022-09-03T09:28:00;4.18;;;1.23;;
49826;SDS011;35715;51.570;6.036;2022-09-03T09:30:31;1.55;;;1.13;;
49826;SDS011;35715;51.570;6.036;2022-09-03T09:32:57;3.65;;;1.05;;
49826;SDS011;35715;51.570;6.036;2022-09-03T09:35:24;3.42;;;1.33;;
49826;SDS011;35715;51.570;6.036;2022-09-03T09:37:51;4.00;;;1.17;;
49826;SDS011;35715;51.570;6.036;2022-09-03T09:40:30;3.28;;;1.73;;
49826;SDS011;35715;51.570;6.036;2022-09-03T09:43:14;1.77;;;1.30;;
49826;SDS011;35715;51.570;6.036;2022-09-03T09:45:50;3.47;;;1.70;;
49826;SDS011;35715;51.570;6.036;2022-09-03T09:51:10;0.70;;;0.60;;
49826;SDS011;35715;51.570;6.036;2022-09-03T09:53:38;1.73;;;1.10;;
49826;SDS011;35715;51.570;6.036;2022-09-03T09:56:04;16.10;;;1.10;;
49826;SDS011;35715;51.570;6.036;2022-09-03T09:58:31;1.92;;;1.63;;
49826;SDS011;35715;51.570;6.036;2022-09-03T10:01:05;3.90;;;1.08;;
49826;SDS011;35715;51.570;6.036;2022-09-03T10:03:55;1.67;;;0.88;;
49826;SDS011;35715;51.570;6.036;2022-09-03T10:06:22;1.92;;;1.20;;
49826;SDS011;35715;51.570;6.036;2022-09-03T10:09:16;4.63;;;0.95;;
49826;SDS011;35715;51.570;6.036;2022-09-03T10:11:49;0.88;;;0.70;;
49826;SDS011;35715;51.570;6.036;2022-09-03T10:14:29;6.25;;;1.13;;
49826;SDS011;35715;51.570;6.036;2022-09-03T10:22:55;4.60;;;1.30;;
49826;SDS011;35715;51.570;6.036;2022-09-03T10:25:25;8.55;;;1.63;;
49826;SDS011;35715;51.570;6.036;2022-09-03T10:27:56;4.32;;;1.10;;
49826;SDS011;35715;51.570;6.036;2022-09-03T10:36:22;13.27;;;1.80;;
49826;SDS011;35715;51.570;6.036;2022-09-03T10:38:58;1.08;;;0.98;;
49826;SDS011;35715;51.570;6.036;2022-09-03T10:41:48;7.40;;;1.85;;
49826;SDS011;35715;51.570;6.036;2022-09-03T10:44:44;2.95;;;1.50;;
49826;SDS011;35715;51.570;6.036;2022-09-03T10:47:23;2.55;;;0.95;;
49826;SDS011;35715;51.570;6.036;2022-09-03T10:50:25;3.72;;;1.58;;
49826;SDS011;35715;51.570;6.036;2022-09-03T11:01:50;3.25;;;1.25;;
49826;SDS011;35715;51.570;6.036;2022-09-03T11:09:25;1.73;;;1.23;;
49826;SDS011;35715;51.570;6.036;2022-09-03T11:12:00;6.75;;;0.90;;
49826;SDS011;35715;51.570;6.036;2022-09-03T11:14:37;3.00;;;1.50;;
49826;SDS011;35715;51.570;6.036;2022-09-03T11:17:20;4.82;;;1.30;;
49826;SDS011;35715;51.570;6.036;2022-09-03T11:19:56;1.95;;;1.25;;
49826;SDS011;35715;51.570;6.036;2022-09-03T11:22:33;1.83;;;0.93;;
49826;SDS011;35715;51.570;6.036;2022-09-03T11:25:00;1.25;;;1.15;;
49826;SDS011;35715;51.570;6.036;2022-09-03T11:30:11;4.55;;;1.10;;
49826;SDS011;35715;51.570;6.036;2022-09-03T11:35:12;1.88;;;1.38;;
49826;SDS011;35715;51.570;6.036;2022-09-03T11:38:24;1.58;;;1.30;;
49826;SDS011;35715;51.570;6.036;2022-09-03T11:41:02;6.30;;;1.38;;
49826;SDS011;35715;51.570;6.036;2022-09-03T11:43:37;1.50;;;1.17;;
49826;SDS011;35715;51.570;6.036;2022-09-03T11:46:25;1.67;;;1.20;;
49826;SDS011;35715;51.570;6.036;2022-09-03T11:48:53;2.88;;;1.40;;
49826;SDS011;35715;51.570;6.036;2022-09-03T11:51:34;1.60;;;1.50;;
49826;SDS011;35715;51.570;6.036;2022-09-03T11:56:37;5.97;;;1.40;;
49826;SDS011;35715;51.570;6.036;2022-09-03T11:59:05;9.82;;;1.33;;
49826;SDS011;35715;51.570;6.036;2022-09-03T12:01:42;0.93;;;0.82;;
49826;SDS011;35715;51.570;6.036;2022-09-03T12:04:17;4.00;;;1.33;;
49826;SDS011;35715;51.570;6.036;2022-09-03T12:17:58;10.32;;;1.42;;
49826;SDS011;35715;51.570;6.036;2022-09-03T12:20:44;1.80;;;1.50;;
49826;SDS011;35715;51.570;6.036;2022-09-03T12:23:28;1.85;;;0.95;;
49826;SDS011;35715;51.570;6.036;2022-09-03T12:26:05;6.25;;;1.95;;
49826;SDS011;35715;51.570;6.036;2022-09-03T12:28:34;1.90;;;1.35;;
49826;SDS011;35715;51.570;6.036;2022-09-03T12:31:05;3.10;;;1.60;;
49826;SDS011;35715;51.570;6.036;2022-09-03T12:36:21;2.38;;;1.08;;
49826;SDS011;35715;51.570;6.036;2022-09-03T12:38:47;2.72;;;1.65;;
49826;SDS011;35715;51.570;6.036;2022-09-03T12:41:27;3.08;;;1.58;;
49826;SDS011;35715;51.570;6.036;2022-09-03T12:43:55;3.45;;;1.95;;
49826;SDS011;35715;51.570;6.036;2022-09-03T12:46:26;4.65;;;1.17;;
49826;SDS011;35715;51.570;6.036;2022-09-03T12:48:57;3.75;;;1.90;;
49826;SDS011;35715;51.570;6.036;2022-09-03T12:51:33;5.45;;;1.30;;
49826;SDS011;35715;51.570;6.036;2022-09-03T12:54:04;1.92;;;1.52;;
49826;SDS011;35715;51.570;6.036;2022-09-03T12:56:33;6.47;;;1.60;;
49826;SDS011;35715;51.570;6.036;2022-09-03T12:59:03;4.82;;;1.42;;
49826;SDS011;35715;51.570;6.036;2022-09-03T13:01:44;2.90;;;1.70;;
49826;SDS011;35715;51.570;6.036;2022-09-03T13:04:15;2.80;;;2.08;;
49826;SDS011;35715;51.570;6.036;2022-09-03T13:09:10;5.28;;;2.08;;
49826;SDS011;35715;51.570;6.036;2022-09-03T13:11:49;1.98;;;1.67;;
49826;SDS011;35715;51.570;6.036;2022-09-03T13:14:16;8.48;;;2.00;;
49826;SDS011;35715;51.570;6.036;2022-09-03T13:19:13;2.33;;;1.77;;
49826;SDS011;35715;51.570;6.036;2022-09-03T13:27:28;6.32;;;1.88;;
49826;SDS011;35715;51.570;6.036;2022-09-03T13:30:13;2.80;;;1.38;;
49826;SDS011;35715;51.570;6.036;2022-09-03T13:44:14;10.82;;;2.08;;
49826;SDS011;35715;51.570;6.036;2022-09-03T13:46:56;7.15;;;2.03;;
49826;SDS011;35715;51.570;6.036;2022-09-03T14:00:53;2.67;;;1.45;;
49826;SDS011;35715;51.570;6.036;2022-09-03T14:03:32;1.65;;;1.48;;
49826;SDS011;35715;51.570;6.036;2022-09-03T14:08:40;6.32;;;1.70;;
49826;SDS011;35715;51.570;6.036;2022-09-03T14:14:40;3.45;;;1.83;;
49826;SDS011;35715;51.570;6.036;2022-09-03T14:17:17;3.45;;;1.60;;
49826;SDS011;35715;51.570;6.036;2022-09-03T14:19:54;2.08;;;1.52;;
49826;SDS011;35715;51.570;6.036;2022-09-03T14:25:14;7.43;;;2.08;;
49826;SDS011;35715;51.570;6.036;2022-09-03T14:27:41;2.38;;;1.65;;
49826;SDS011;35715;51.570;6.036;2022-09-03T14:33:15;4.75;;;2.25;;
49826;SDS011;35715;51.570;6.036;2022-09-03T14:44:40;5.28;;;2.05;;
49826;SDS011;35715;51.570;6.036;2022-09-03T14:50:12;10.43;;;2.08;;
49826;SDS011;35715;51.570;6.036;2022-09-03T14:53:10;1.80;;;1.67;;
49826;SDS011;35715;51.570;6.036;2022-09-03T15:01:34;10.82;;;2.78;;
49826;SDS011;35715;51.570;6.036;2022-09-03T15:04:18;2.45;;;2.22;;
49826;SDS011;35715;51.570;6.036;2022-09-03T15:14:53;2.60;;;2.10;;
49826;SDS011;35715;51.570;6.036;2022-09-03T15:20:14;1.55;;;1.45;;
49826;SDS011;35715;51.570;6.036;2022-09-03T15:28:21;5.30;;;2.03;;
49826;SDS011;35715;51.570;6.036;2022-09-03T15:33:31;3.47;;;2.25;;
49826;SDS011;35715;51.570;6.036;2022-09-03T15:36:14;2.72;;;1.70;;
49826;SDS011;35715;51.570;6.036;2022-09-03T15:39:00;2.10;;;2.00;;
49826;SDS011;35715;51.570;6.036;2022-09-03T15:44:14;1.70;;;1.60;;
49826;SDS011;35715;51.570;6.036;2022-09-03T15:54:57;4.18;;;2.13;;
49826;SDS011;35715;51.570;6.036;2022-09-03T15:57:54;2.28;;;2.08;;
49826;SDS011;35715;51.570;6.036;2022-09-03T16:06:56;5.75;;;1.90;;
49826;SDS011;35715;51.570;6.036;2022-09-03T16:09:17;2.03;;;1.92;;
49826;SDS011;35715;51.570;6.036;2022-09-03T16:11:51;3.35;;;2.08;;
49826;SDS011;35715;51.570;6.036;2022-09-03T16:14:39;4.45;;;2.13;;
49826;SDS011;35715;51.570;6.036;2022-09-03T16:17:21;4.32;;;2.20;;
49826;SDS011;35715;51.570;6.036;2022-09-03T16:22:46;3.90;;;1.92;;
49826;SDS011;35715;51.570;6.036;2022-09-03T16:25:28;2.10;;;1.90;;
49826;SDS011;35715;51.570;6.036;2022-09-03T16:28:01;4.25;;;1.98;;
49826;SDS011;35715;51.570;6.036;2022-09-03T16:39:02;1.58;;;1.52;;
49826;SDS011;35715;51.570;6.036;2022-09-03T16:44:30;3.10;;;2.22;;
49826;SDS011;35715;51.570;6.036;2022-09-03T16:55:12;2.47;;;2.28;;
49826;SDS011;35715;51.570;6.036;2022-09-03T17:00:47;2.35;;;1.88;;
49826;SDS011;35715;51.570;6.036;2022-09-03T17:03:31;3.88;;;1.65;;
49826;SDS011;35715;51.570;6.036;2022-09-03T17:11:53;4.43;;;1.90;;
49826;SDS011;35715;51.570;6.036;2022-09-03T17:28:44;6.03;;;2.30;;
49826;SDS011;35715;51.570;6.036;2022-09-03T17:36:40;5.53;;;2.53;;
49826;SDS011;35715;51.570;6.036;2022-09-03T17:42:13;4.53;;;1.92;;
49826;SDS011;35715;51.570;6.036;2022-09-03T17:47:37;2.35;;;1.45;;
49826;SDS011;35715;51.570;6.036;2022-09-03T17:50:22;5.30;;;2.30;;
49826;SDS011;35715;51.570;6.036;2022-09-03T17:52:51;2.47;;;2.15;;
49826;SDS011;35715;51.570;6.036;2022-09-03T17:55:36;3.58;;;2.63;;
49826;SDS011;35715;51.570;6.036;2022-09-03T17:58:20;6.88;;;2.40;;
49826;SDS011;35715;51.570;6.036;2022-09-03T18:03:40;2.53;;;2.33;;
49826;SDS011;35715;51.570;6.036;2022-09-03T18:06:25;4.18;;;2.05;;
49826;SDS011;35715;51.570;6.036;2022-09-03T18:08:59;2.35;;;2.00;;
49826;SDS011;35715;51.570;6.036;2022-09-03T18:16:54;5.25;;;2.22;;
49826;SDS011;35715;51.570;6.036;2022-09-03T18:19:38;2.55;;;2.35;;
49826;SDS011;35715;51.570;6.036;2022-09-03T18:22:52;3.05;;;2.55;;
49826;SDS011;35715;51.570;6.036;2022-09-03T18:25:34;3.15;;;2.22;;
49826;SDS011;35715;51.570;6.036;2022-09-03T18:28:26;6.13;;;3.13;;
49826;SDS011;35715;51.570;6.036;2022-09-03T18:31:18;5.63;;;2.97;;
49826;SDS011;35715;51.570;6.036;2022-09-03T18:34:02;4.15;;;2.47;;
49826;SDS011;35715;51.570;6.036;2022-09-03T18:36:47;4.32;;;3.22;;
49826;SDS011;35715;51.570;6.036;2022-09-03T18:39:31;5.80;;;2.88;;
49826;SDS011;35715;51.570;6.036;2022-09-03T18:45:21;7.40;;;2.70;;
49826;SDS011;35715;51.570;6.036;2022-09-03T18:48:38;11.40;;;3.70;;
49826;SDS011;35715;51.570;6.036;2022-09-03T18:51:51;4.50;;;2.72;;
49826;SDS011;35715;51.570;6.036;2022-09-03T18:57:48;4.60;;;3.53;;
49826;SDS011;35715;51.570;6.036;2022-09-03T19:01:08;8.32;;;3.97;;
49826;SDS011;35715;51.570;6.036;2022-09-03T19:04:06;7.80;;;3.03;;
49826;SDS011;35715;51.570;6.036;2022-09-03T19:07:11;7.30;;;3.55;;
49826;SDS011;35715;51.570;6.036;2022-09-03T19:10:16;8.00;;;3.42;;
49826;SDS011;35715;51.570;6.036;2022-09-03T19:13:11;7.95;;;4.28;;
49826;SDS011;35715;51.570;6.036;2022-09-03T19:16:22;9.02;;;4.22;;
49826;SDS011;35715;51.570;6.036;2022-09-03T19:25:27;11.07;;;3.55;;
49826;SDS011;35715;51.570;6.036;2022-09-03T19:34:48;35.55;;;4.78;;
49826;SDS011;35715;51.570;6.036;2022-09-03T19:44:59;10.02;;;3.50;;
49826;SDS011;35715;51.570;6.036;2022-09-03T19:51:12;7.20;;;3.28;;
49826;SDS011;35715;51.570;6.036;2022-09-03T19:53:59;8.27;;;3.30;;
49826;SDS011;35715;51.570;6.036;2022-09-03T19:56:46;10.65;;;4.20;;
49826;SDS011;35715;51.570;6.036;2022-09-03T20:02:23;4.22;;;2.70;;
49826;SDS011;35715;51.570;6.036;2022-09-03T20:05:13;7.15;;;3.35;;
49826;SDS011;35715;51.570;6.036;2022-09-03T20:08:01;10.95;;;3.72;;
49826;SDS011;35715;51.570;6.036;2022-09-03T20:10:55;6.40;;;3.60;;
49826;SDS011;35715;51.570;6.036;2022-09-03T20:13:21;3.30;;;3.03;;
49826;SDS011;35715;51.570;6.036;2022-09-03T20:15:58;5.53;;;3.00;;
49826;SDS011;35715;51.570;6.036;2022-09-03T20:24:32;7.03;;;3.97;;
49826;SDS011;35715;51.570;6.036;2022-09-03T20:27:44;4.40;;;3.78;;
49826;SDS011;35715;51.570;6.036;2022-09-03T20:30:34;5.30;;;3.92;;
49826;SDS011;35715;51.570;6.036;2022-09-03T20:38:45;10.77;;;4.82;;
49826;SDS011;35715;51.570;6.036;2022-09-03T20:44:33;3.80;;;3.40;;
49826;SDS011;35715;51.570;6.036;2022-09-03T20:55:18;6.90;;;3.08;;
49826;SDS011;35715;51.570;6.036;2022-09-03T21:06:44;4.15;;;3.75;;
49826;SDS011;35715;51.570;6.036;2022-09-03T21:12:42;3.50;;;3.17;;
49826;SDS011;35715;51.570;6.036;2022-09-03T21:20:46;4.22;;;3.08;;
49826;SDS011;35715;51.570;6.036;2022-09-03T21:26:00;6.75;;;3.60;;
49826;SDS011;35715;51.570;6.036;2022-09-03T21:28:38;3.88;;;3.58;;
49826;SDS011;35715;51.570;6.036;2022-09-03T21:31:50;4.47;;;3.65;;
49826;SDS011;35715;51.570;6.036;2022-09-03T21:34:06;6.43;;;3.20;;
49826;SDS011;35715;51.570;6.036;2022-09-03T21:36:50;7.80;;;3.22;;
49826;SDS011;35715;51.570;6.036;2022-09-03T21:44:44;2.55;;;2.35;;
49826;SDS011;35715;51.570;6.036;2022-09-03T21:47:18;5.07;;;2.53;;
49826;SDS011;35715;51.570;6.036;2022-09-03T21:52:14;3.20;;;2.90;;
49826;SDS011;35715;51.570;6.036;2022-09-03T21:54:44;3.88;;;2.78;;
49826;SDS011;35715;51.570;6.036;2022-09-03T22:00:17;3.35;;;3.00;;
49826;SDS011;35715;51.570;6.036;2022-09-03T22:02:53;2.90;;;2.70;;
49826;SDS011;35715;51.570;6.036;2022-09-03T22:05:23;7.32;;;3.42;;
49826;SDS011;35715;51.570;6.036;2022-09-03T22:10:25;3.97;;;3.08;;
49826;SDS011;35715;51.570;6.036;2022-09-03T22:15:45;4.00;;;3.50;;
49826;SDS011;35715;51.570;6.036;2022-09-03T22:37:57;2.97;;;2.75;;
49826;SDS011;35715;51.570;6.036;2022-09-03T22:43:39;6.90;;;4.38;;
49826;SDS011;35715;51.570;6.036;2022-09-03T22:46:14;3.72;;;3.45;;
49826;SDS011;35715;51.570;6.036;2022-09-03T22:52:32;3.58;;;2.83;;
49826;SDS011;35715;51.570;6.036;2022-09-03T22:55:13;5.22;;;4.13;;